createdAt,value
2019-02-02T00:01:22.528Z,3.60
2019-02-02T00:03:50.639Z,3.80
2019-02-02T00:06:18.642Z,3.90
2019-02-02T00:08:46.666Z,4.00
2019-02-02T00:11:14.927Z,3.80
2019-02-02T00:13:42.877Z,3.90
2019-02-02T00:16:10.901Z,3.90
2019-02-02T00:18:38.824Z,3.80
2019-02-02T00:21:06.828Z,3.70
2019-02-02T00:23:34.840Z,3.60
2019-02-02T00:26:02.930Z,3.60
2019-02-02T00:28:30.842Z,3.40
2019-02-02T00:30:58.770Z,3.30
2019-02-02T00:33:26.640Z,3.20
2019-02-02T00:35:54.925Z,3.20
2019-02-02T00:38:22.981Z,3.30
2019-02-02T00:40:50.883Z,3.40
2019-02-02T00:43:18.778Z,3.40
2019-02-02T00:45:46.773Z,3.40
2019-02-02T00:48:14.792Z,3.40
2019-02-02T00:50:42.816Z,3.30
2019-02-02T00:53:10.872Z,3.30
2019-02-02T00:55:38.822Z,3.30
2019-02-02T00:58:07.028Z,3.20
2019-02-02T01:00:35.321Z,3.20
2019-02-02T01:03:03.279Z,3.10
2019-02-02T01:05:31.311Z,3.10
2019-02-02T01:07:59.303Z,3.30
2019-02-02T01:10:28.590Z,3.30
2019-02-02T01:12:56.539Z,3.30
2019-02-02T01:15:24.611Z,3.30
2019-02-02T01:17:52.666Z,3.20
2019-02-02T01:20:21.066Z,3.30
2019-02-02T01:22:49.029Z,3.30
2019-02-02T01:25:16.975Z,3.30
2019-02-02T01:27:45.059Z,3.30
2019-02-02T01:30:13.960Z,3.30
2019-02-02T01:32:41.887Z,3.20
2019-02-02T01:35:10.409Z,3.20
2019-02-02T01:37:38.389Z,3.40
2019-02-02T01:40:07.592Z,3.40
2019-02-02T01:42:35.640Z,3.40
2019-02-02T01:45:05.027Z,3.30
2019-02-02T01:47:32.987Z,3.30
2019-02-02T01:50:00.999Z,3.30
2019-02-02T01:52:28.959Z,3.20
2019-02-02T01:54:56.829Z,3.10
2019-02-02T01:57:24.755Z,3.10
2019-02-02T01:59:52.736Z,3.10
2019-02-02T02:02:20.655Z,3.10
2019-02-02T02:04:48.575Z,3.20
2019-02-02T02:07:16.476Z,3.30
2019-02-02T02:09:44.370Z,3.30
2019-02-02T02:12:12.405Z,3.30
2019-02-02T02:14:40.362Z,3.20
2019-02-02T02:17:08.312Z,3.10
2019-02-02T02:19:36.275Z,3.20
2019-02-02T02:22:04.166Z,3.20
2019-02-02T02:24:32.149Z,3.30
2019-02-02T02:27:00.050Z,3.30
2019-02-02T02:29:27.953Z,3.30
2019-02-02T02:31:55.821Z,3.40
2019-02-02T02:34:23.748Z,3.30
2019-02-02T02:36:51.690Z,3.30
2019-02-02T02:39:19.695Z,3.20
2019-02-02T02:41:47.623Z,3.20
2019-02-02T02:44:15.576Z,3.20
2019-02-02T02:46:43.472Z,3.30
2019-02-02T02:49:11.408Z,3.30
2019-02-02T02:51:39.292Z,3.20
2019-02-02T02:54:07.205Z,3.20
2019-02-02T02:56:35.372Z,3.20
2019-02-02T02:59:03.244Z,3.30
2019-02-02T03:01:31.279Z,3.20
2019-02-02T03:03:59.154Z,3.30
2019-02-02T03:06:27.107Z,3.40
2019-02-02T03:08:56.887Z,3.40
2019-02-02T03:11:24.758Z,3.40
2019-02-02T03:13:52.634Z,3.30
2019-02-02T03:16:20.519Z,3.30
2019-02-02T03:18:48.411Z,3.30
2019-02-02T03:21:16.307Z,3.30
2019-02-02T03:23:44.354Z,3.30
2019-02-02T03:26:12.230Z,3.10
2019-02-02T03:28:40.125Z,3.10
2019-02-02T03:31:08.160Z,3.10
2019-02-02T03:33:36.121Z,3.00
2019-02-02T03:36:04.057Z,3.00
2019-02-02T03:38:31.948Z,2.80
2019-02-02T03:40:59.898Z,2.80
2019-02-02T03:43:27.777Z,2.70
2019-02-02T03:45:55.683Z,2.70
2019-02-02T03:48:23.619Z,2.60
2019-02-02T03:50:51.582Z,2.50
2019-02-02T03:53:19.516Z,2.60
2019-02-02T03:55:47.524Z,2.60
2019-02-02T03:58:15.392Z,2.70
2019-02-02T04:00:43.310Z,2.70
2019-02-02T04:03:11.256Z,2.80
2019-02-02T04:05:39.314Z,2.70
2019-02-02T04:08:07.284Z,2.70
2019-02-02T04:10:35.230Z,2.80
2019-02-02T04:13:03.128Z,2.90
2019-02-02T04:15:31.171Z,2.90
2019-02-02T04:17:59.117Z,2.80
2019-02-02T04:20:27.084Z,2.70
2019-02-02T04:22:54.960Z,2.80
2019-02-02T04:25:23.240Z,2.80
2019-02-02T04:27:51.196Z,2.80
2019-02-02T04:30:20.157Z,2.70
2019-02-02T04:32:48.300Z,2.60
2019-02-02T04:35:16.295Z,2.50
2019-02-02T04:37:44.315Z,2.50
2019-02-02T04:40:12.488Z,2.40
2019-02-02T04:42:40.516Z,2.50
2019-02-02T04:45:09.119Z,2.30
2019-02-02T04:47:37.102Z,2.30
2019-02-02T04:50:05.727Z,2.30
2019-02-02T04:52:33.672Z,2.30
2019-02-02T04:55:01.565Z,2.40
2019-02-02T04:57:29.474Z,2.50
2019-02-02T04:59:57.372Z,2.50
2019-02-02T05:02:25.312Z,2.40
2019-02-02T05:04:53.204Z,2.40
2019-02-02T05:07:21.096Z,2.40
2019-02-02T05:09:48.958Z,2.40
2019-02-02T05:12:16.873Z,2.40
2019-02-02T05:14:44.835Z,2.40
2019-02-02T05:17:12.703Z,2.30
2019-02-02T05:19:40.634Z,2.30
2019-02-02T05:22:08.544Z,2.40
2019-02-02T05:24:36.407Z,2.30
2019-02-02T05:27:04.442Z,2.20
2019-02-02T05:29:41.027Z,2.20
2019-02-02T05:32:01.936Z,2.20
2019-02-02T05:34:29.926Z,2.30
2019-02-02T05:36:58.044Z,2.30
2019-02-02T05:39:25.930Z,2.30
2019-02-02T05:41:53.895Z,2.40
2019-02-02T05:44:21.776Z,2.50
2019-02-02T05:46:49.756Z,2.60
2019-02-02T05:49:17.707Z,2.70
2019-02-02T05:51:45.598Z,2.70
2019-02-02T05:54:13.509Z,2.80
2019-02-02T05:56:41.459Z,2.80
2019-02-02T05:59:09.402Z,2.70
2019-02-02T06:01:37.257Z,2.60
2019-02-02T06:04:05.364Z,2.70
2019-02-02T06:06:33.337Z,2.70
2019-02-02T06:09:01.287Z,2.80
2019-02-02T06:11:29.245Z,2.90
2019-02-02T06:13:57.185Z,2.90
2019-02-02T06:16:25.238Z,2.90
2019-02-02T06:18:53.162Z,2.70
2019-02-02T06:21:21.122Z,2.80
2019-02-02T06:23:49.010Z,2.80
2019-02-02T06:26:16.929Z,2.80
2019-02-02T06:28:44.831Z,2.80
2019-02-02T06:31:12.719Z,2.60
2019-02-02T06:33:43.677Z,2.60
2019-02-02T06:36:11.565Z,2.50
2019-02-02T06:38:39.481Z,2.50
2019-02-02T06:41:07.451Z,2.50
2019-02-02T06:43:35.454Z,2.50
2019-02-02T06:46:03.520Z,2.50
2019-02-02T06:48:37.301Z,2.40
2019-02-02T06:51:05.320Z,2.40
2019-02-02T06:53:33.244Z,2.50
2019-02-02T06:56:01.159Z,2.50
2019-02-02T06:58:29.190Z,2.60
2019-02-02T07:00:57.222Z,2.70
2019-02-02T07:03:25.169Z,2.60
2019-02-02T07:06:06.758Z,2.70
2019-02-02T07:08:34.834Z,2.70
2019-02-02T07:11:06.078Z,2.70
2019-02-02T07:13:36.131Z,2.70
2019-02-02T07:16:05.646Z,2.70
2019-02-02T07:18:33.536Z,2.70
2019-02-02T07:21:04.412Z,2.70
2019-02-02T07:23:32.343Z,2.70
2019-02-02T07:26:02.378Z,2.60
2019-02-02T07:28:30.459Z,2.70
2019-02-02T07:30:58.446Z,2.70
2019-02-02T07:33:26.401Z,2.80
2019-02-02T07:35:54.421Z,2.70
2019-02-02T07:38:22.478Z,2.90
2019-02-02T07:40:50.430Z,2.90
2019-02-02T07:43:18.437Z,2.90
2019-02-02T07:45:46.360Z,3.00
2019-02-02T07:48:14.280Z,3.10
2019-02-02T07:50:42.242Z,3.10
2019-02-02T07:53:10.200Z,3.10
2019-02-02T07:55:38.121Z,3.00
2019-02-02T07:58:06.141Z,3.00
2019-02-02T08:00:40.929Z,3.10
2019-02-02T08:03:06.068Z,3.10
2019-02-02T08:05:34.085Z,3.00
2019-02-02T08:08:02.232Z,3.00
2019-02-02T08:10:30.352Z,3.20
2019-02-02T08:12:58.395Z,3.20
2019-02-02T08:15:27.299Z,3.10
2019-02-02T08:17:55.246Z,3.10
2019-02-02T08:20:23.304Z,3.20
2019-02-02T08:22:51.279Z,3.30
2019-02-02T08:25:19.195Z,3.30
2019-02-02T08:27:47.262Z,3.40
2019-02-02T08:30:16.759Z,3.40
2019-02-02T08:32:44.924Z,3.50
2019-02-02T08:35:14.014Z,3.50
2019-02-02T08:37:41.936Z,3.50
2019-02-02T08:40:10.964Z,3.60
2019-02-02T08:42:39.067Z,3.70
2019-02-02T08:45:07.495Z,3.70
2019-02-02T08:47:35.535Z,3.80
2019-02-02T08:50:04.021Z,3.70
2019-02-02T08:52:31.991Z,3.70
2019-02-02T08:55:00.835Z,3.60
2019-02-02T08:57:29.647Z,3.60
2019-02-02T08:59:59.846Z,3.70
2019-02-02T09:02:27.250Z,3.70
2019-02-02T09:04:55.198Z,3.60
2019-02-02T09:07:23.319Z,3.60
2019-02-02T09:09:51.290Z,3.60
2019-02-02T09:12:19.310Z,3.60
2019-02-02T09:18:33.155Z,3.60
2019-02-02T09:23:57.689Z,3.90
2019-02-02T09:26:33.340Z,3.80
2019-02-02T09:29:03.874Z,3.80
2019-02-02T09:31:32.292Z,3.90
2019-02-02T09:34:03.348Z,3.90
2019-02-02T09:36:44.155Z,3.90
2019-02-02T09:39:21.633Z,4.00
2019-02-02T09:42:04.282Z,4.00
2019-02-02T09:47:40.280Z,4.10
2019-02-02T09:50:12.125Z,4.00
2019-02-02T09:52:46.852Z,4.00
2019-02-02T09:55:15.549Z,3.90
2019-02-02T09:57:43.947Z,3.90
2019-02-02T10:00:30.717Z,3.90
2019-02-02T10:03:07.612Z,3.90
2019-02-02T10:05:47.773Z,3.90
2019-02-02T10:08:38.493Z,3.90
2019-02-02T10:11:09.668Z,3.90
2019-02-02T10:13:48.487Z,4.00
2019-02-02T10:16:16.126Z,4.10
2019-02-02T10:18:44.259Z,4.20
2019-02-02T10:21:12.881Z,4.30
2019-02-02T10:23:41.065Z,4.30
2019-02-02T10:26:08.986Z,4.20
2019-02-02T10:28:36.922Z,4.20
2019-02-02T10:31:09.609Z,4.20
2019-02-02T10:33:39.869Z,4.20
2019-02-02T10:36:07.926Z,4.20
2019-02-02T10:38:35.922Z,4.30
2019-02-02T10:41:03.797Z,4.30
2019-02-02T10:43:31.683Z,4.30
2019-02-02T10:46:02.895Z,4.30
2019-02-02T10:48:32.190Z,4.10
2019-02-02T10:51:00.141Z,4.10
2019-02-02T10:53:28.020Z,4.00
2019-02-02T10:55:55.905Z,4.00
2019-02-02T10:58:23.903Z,3.90
2019-02-02T11:00:51.797Z,4.00
2019-02-02T11:03:19.937Z,4.10
2019-02-02T11:05:47.948Z,4.10
2019-02-02T11:08:19.407Z,4.20
2019-02-02T11:10:47.557Z,4.20
2019-02-02T11:13:16.435Z,4.30
2019-02-02T11:15:44.934Z,4.30
2019-02-02T11:18:13.031Z,4.40
2019-02-02T11:20:41.077Z,4.40
2019-02-02T11:23:09.303Z,4.40
2019-02-02T11:25:37.659Z,4.30
2019-02-02T11:28:05.989Z,4.40
2019-02-02T11:30:34.067Z,4.40
2019-02-02T11:33:02.239Z,4.50
2019-02-02T11:35:30.118Z,4.50
2019-02-02T11:37:58.187Z,4.40
2019-02-02T11:40:27.322Z,4.50
2019-02-02T11:42:55.517Z,4.50
2019-02-02T11:45:23.581Z,4.50
2019-02-02T11:47:51.994Z,4.50
2019-02-02T11:50:20.043Z,4.40
2019-02-02T11:52:48.102Z,4.40
2019-02-02T11:55:16.587Z,4.40
2019-02-02T11:57:44.604Z,4.50
2019-02-02T12:00:16.334Z,4.60
2019-02-02T12:02:49.473Z,4.60
2019-02-02T12:05:14.094Z,4.60
2019-02-02T12:07:41.994Z,4.60
2019-02-02T12:10:13.153Z,4.50
2019-02-02T12:12:42.209Z,4.50
2019-02-02T12:15:11.383Z,4.40
2019-02-02T12:17:39.268Z,4.20
2019-02-02T12:20:11.278Z,4.10
2019-02-02T12:22:39.360Z,4.00
2019-02-02T12:25:07.409Z,4.00
2019-02-02T12:27:35.551Z,4.00
2019-02-02T12:30:04.532Z,3.70
2019-02-02T12:32:32.422Z,3.70
2019-02-02T12:35:00.433Z,3.80
2019-02-02T12:37:28.435Z,3.60
2019-02-02T12:39:56.399Z,3.60
2019-02-02T12:42:24.576Z,3.60
2019-02-02T12:44:52.558Z,3.70
2019-02-02T12:47:20.951Z,3.70
2019-02-02T12:49:48.976Z,3.80
2019-02-02T12:52:17.190Z,3.90
2019-02-02T12:54:45.125Z,3.90
2019-02-02T12:57:13.198Z,3.90
2019-02-02T12:59:41.177Z,3.90
2019-02-02T13:02:09.048Z,3.90
2019-02-02T13:04:37.027Z,4.00
2019-02-02T13:07:05.214Z,4.10
2019-02-02T13:09:33.089Z,4.10
2019-02-02T13:12:00.979Z,4.10
2019-02-02T13:14:28.896Z,4.10
2019-02-02T13:16:59.782Z,4.10
2019-02-02T13:19:26.441Z,4.10
2019-02-02T13:21:54.363Z,3.90
2019-02-02T13:24:22.348Z,3.90
2019-02-02T13:26:50.263Z,3.80
2019-02-02T13:29:18.281Z,3.70
2019-02-02T13:31:46.241Z,3.70
2019-02-02T13:34:14.363Z,3.50
2019-02-02T13:36:42.459Z,3.40
2019-02-02T13:39:11.306Z,3.30
2019-02-02T13:41:39.455Z,3.30
2019-02-02T13:44:07.386Z,3.20
2019-02-02T13:46:35.335Z,3.20
2019-02-02T13:49:03.252Z,3.30
2019-02-02T13:51:31.374Z,3.10
2019-02-02T13:53:59.340Z,3.00
2019-02-02T13:56:28.825Z,3.10
2019-02-02T13:58:57.920Z,3.10
2019-02-02T14:01:26.049Z,3.10
2019-02-02T14:03:54.034Z,3.20
2019-02-02T14:06:22.156Z,3.20
2019-02-02T14:08:51.867Z,3.30
2019-02-02T14:11:19.766Z,3.30
2019-02-02T14:13:47.803Z,3.20
2019-02-02T14:16:15.679Z,3.20
2019-02-02T14:18:43.611Z,3.20
2019-02-02T14:21:11.540Z,3.00
2019-02-02T14:23:39.681Z,3.10
2019-02-02T14:26:07.699Z,3.00
2019-02-02T14:28:35.720Z,2.90
2019-02-02T14:31:03.802Z,2.80
2019-02-02T14:33:31.762Z,2.80
2019-02-02T14:36:01.851Z,2.80
2019-02-02T14:38:29.345Z,2.80
2019-02-02T14:40:57.319Z,2.80
2019-02-02T14:43:25.227Z,2.80
2019-02-02T14:45:53.356Z,2.80
2019-02-02T14:48:21.281Z,2.80
2019-02-02T14:50:49.323Z,2.90
2019-02-02T14:53:17.280Z,2.90
2019-02-02T14:55:46.031Z,2.80
2019-02-02T14:58:14.200Z,2.90
2019-02-02T15:00:45.204Z,2.70
2019-02-02T15:03:25.180Z,2.70
2019-02-02T15:05:43.457Z,2.70
2019-02-02T15:08:11.499Z,2.70
2019-02-02T15:10:39.509Z,2.70
2019-02-02T15:13:07.473Z,2.60
2019-02-02T15:15:35.444Z,2.50
2019-02-02T15:18:03.494Z,2.60
2019-02-02T15:20:32.558Z,2.50
2019-02-02T15:23:00.526Z,2.50
2019-02-02T15:25:28.527Z,2.40
2019-02-02T15:27:56.536Z,2.40
2019-02-02T15:30:25.218Z,2.50
2019-02-02T15:32:53.221Z,2.60
2019-02-02T15:35:21.323Z,2.40
2019-02-02T15:37:49.336Z,2.40
2019-02-02T15:40:17.855Z,2.50
2019-02-02T15:42:45.872Z,2.40
2019-02-02T15:45:14.778Z,2.30
2019-02-02T15:47:42.933Z,2.40
2019-02-02T15:50:14.412Z,2.40
2019-02-02T15:52:42.480Z,2.40
2019-02-02T15:55:11.742Z,2.30
2019-02-02T15:57:39.787Z,2.40
2019-02-02T16:00:10.136Z,2.30
2019-02-02T16:02:38.177Z,2.30
2019-02-02T16:05:13.139Z,2.40
2019-02-02T16:07:41.308Z,2.40
2019-02-02T16:10:10.973Z,2.60
2019-02-02T16:12:39.190Z,2.60
2019-02-02T16:15:07.241Z,2.60
2019-02-02T16:17:35.312Z,2.50
2019-02-02T16:20:06.346Z,2.50
2019-02-02T16:22:35.925Z,2.40
2019-02-02T16:25:04.809Z,2.30
2019-02-02T16:27:39.186Z,2.40
2019-02-02T16:30:08.326Z,2.40
2019-02-02T16:32:36.230Z,2.30
2019-02-02T16:35:04.414Z,2.30
2019-02-02T16:37:32.437Z,2.30
2019-02-02T16:40:00.355Z,2.30
2019-02-02T16:42:28.309Z,2.30
2019-02-02T16:44:56.434Z,2.30
2019-02-02T16:47:24.459Z,2.30
2019-02-02T16:49:52.394Z,2.30
2019-02-02T16:52:20.328Z,2.40
2019-02-02T16:54:48.210Z,2.40
2019-02-02T16:57:16.115Z,2.30
2019-02-02T16:59:44.120Z,2.30
2019-02-02T17:02:12.182Z,2.30
2019-02-02T17:04:40.256Z,2.30
2019-02-02T17:07:08.203Z,2.30
2019-02-02T17:09:36.169Z,2.20
2019-02-02T17:12:04.272Z,2.30
2019-02-02T17:14:32.363Z,2.20
2019-02-02T17:17:00.586Z,2.30
2019-02-02T17:19:28.532Z,2.30
2019-02-02T17:21:56.519Z,2.30
2019-02-02T17:24:24.520Z,2.30
2019-02-02T17:26:52.580Z,2.40
2019-02-02T17:29:20.647Z,2.30
2019-02-02T17:31:48.643Z,2.40
2019-02-02T17:34:26.987Z,2.40
2019-02-02T17:36:46.389Z,2.30
2019-02-02T17:39:14.491Z,2.30
2019-02-02T17:41:42.455Z,2.20
2019-02-02T17:44:10.546Z,2.20
2019-02-02T17:46:38.444Z,2.20
2019-02-02T17:49:06.451Z,2.20
2019-02-02T17:51:34.408Z,2.20
2019-02-02T17:54:02.500Z,2.30
2019-02-02T17:56:30.454Z,2.20
2019-02-02T17:58:58.427Z,2.20
2019-02-02T18:01:26.530Z,2.20
2019-02-02T18:03:54.781Z,2.20
2019-02-02T18:06:22.728Z,2.20
2019-02-02T18:08:50.640Z,2.30
2019-02-02T18:11:18.912Z,2.30
2019-02-02T18:13:46.913Z,2.30
2019-02-02T18:16:15.075Z,2.30
2019-02-02T18:18:43.227Z,2.30
2019-02-02T18:21:11.212Z,2.30
2019-02-02T18:23:39.155Z,2.30
2019-02-02T18:26:07.127Z,2.20
2019-02-02T18:28:35.225Z,2.10
2019-02-02T18:31:03.299Z,2.10
2019-02-02T18:33:34.189Z,2.10
2019-02-02T18:36:02.295Z,2.10
2019-02-02T18:38:30.527Z,2.20
2019-02-02T18:40:58.622Z,2.10
2019-02-02T18:43:26.748Z,2.10
2019-02-02T18:45:54.662Z,2.10
2019-02-02T18:48:22.581Z,2.20
2019-02-02T18:50:50.722Z,2.20
2019-02-02T18:53:19.669Z,2.20
2019-02-02T18:55:49.651Z,2.30
2019-02-02T18:58:17.735Z,2.20
2019-02-02T19:00:45.792Z,2.30
2019-02-02T19:03:13.883Z,2.20
2019-02-02T19:05:41.853Z,2.10
2019-02-02T19:08:10.002Z,2.10
2019-02-02T19:10:39.054Z,2.10
2019-02-02T19:13:08.962Z,2.10
2019-02-02T19:15:37.022Z,2.00
2019-02-02T19:18:05.650Z,2.00
2019-02-02T19:20:33.592Z,2.00
2019-02-02T19:23:01.515Z,2.00
2019-02-02T19:25:29.488Z,2.00
2019-02-02T19:28:01.335Z,2.00
2019-02-02T19:30:30.241Z,2.00
2019-02-02T19:32:58.235Z,2.00
2019-02-02T19:35:26.212Z,2.00
2019-02-02T19:37:54.270Z,2.10
2019-02-02T19:40:28.602Z,2.10
2019-02-02T19:42:56.583Z,2.20
2019-02-02T19:45:25.099Z,2.20
2019-02-02T19:47:53.168Z,2.20
2019-02-02T19:50:22.587Z,2.20
2019-02-02T19:52:50.841Z,2.20
2019-02-02T19:55:18.858Z,2.20
2019-02-02T19:57:47.008Z,2.20
2019-02-02T20:00:24.969Z,2.20
2019-02-02T20:02:53.370Z,2.20
2019-02-02T20:05:38.386Z,2.20
2019-02-02T20:08:06.566Z,2.10
2019-02-02T20:10:34.625Z,2.00
2019-02-02T20:13:02.553Z,2.00
2019-02-02T20:15:30.470Z,2.10
2019-02-02T20:18:09.360Z,2.10
2019-02-02T20:20:28.291Z,2.10
2019-02-02T20:22:56.616Z,2.10
2019-02-02T20:25:25.050Z,2.00
2019-02-02T20:27:53.020Z,2.00
2019-02-02T20:30:22.029Z,2.10
2019-02-02T20:32:50.106Z,2.00
2019-02-02T20:35:18.100Z,2.00
2019-02-02T20:37:46.443Z,2.00
2019-02-02T20:40:15.508Z,2.00
2019-02-02T20:42:43.526Z,2.00
2019-02-02T20:45:12.723Z,2.00
2019-02-02T20:47:40.691Z,2.00
2019-02-02T20:50:10.549Z,2.00
2019-02-02T20:52:46.911Z,2.00
2019-02-02T20:55:09.302Z,1.90
2019-02-02T20:57:37.383Z,2.00
2019-02-02T21:00:07.401Z,2.10
2019-02-02T21:02:35.385Z,2.00
2019-02-02T21:05:03.467Z,2.00
2019-02-02T21:07:31.508Z,2.00
2019-02-02T21:09:59.536Z,2.00
2019-02-02T21:12:27.566Z,2.00
2019-02-02T21:14:55.903Z,2.00
2019-02-02T21:17:23.908Z,2.00
2019-02-02T21:19:51.918Z,1.90
2019-02-02T21:22:19.900Z,2.00
2019-02-02T21:24:48.095Z,2.00
2019-02-02T21:27:16.079Z,1.90
2019-02-02T21:29:44.094Z,2.00
2019-02-02T21:32:12.173Z,2.00
2019-02-02T21:34:40.102Z,2.00
2019-02-02T21:37:08.244Z,2.00
2019-02-02T21:39:36.223Z,2.10
2019-02-02T21:42:04.438Z,2.20
2019-02-02T21:44:42.921Z,2.20
2019-02-02T21:47:02.501Z,2.20
2019-02-02T21:49:30.508Z,2.20
2019-02-02T21:51:58.618Z,2.30
2019-02-02T21:54:26.655Z,2.30
2019-02-02T21:56:54.768Z,2.20
2019-02-02T21:59:22.890Z,2.30
2019-02-02T22:01:50.942Z,2.30
2019-02-02T22:04:18.943Z,2.20
2019-02-02T22:06:46.932Z,2.30
2019-02-02T22:09:14.988Z,2.20
2019-02-02T22:11:42.915Z,2.10
2019-02-02T22:14:10.986Z,2.10
2019-02-02T22:16:38.874Z,2.10
2019-02-02T22:19:06.839Z,2.10
2019-02-02T22:21:34.864Z,2.00
2019-02-02T22:24:03.308Z,2.00
2019-02-02T22:26:31.311Z,2.00
2019-02-02T22:29:01.422Z,1.90
2019-02-02T22:31:29.450Z,1.90
2019-02-02T22:33:57.485Z,1.90
2019-02-02T22:36:27.426Z,1.90
2019-02-02T22:38:55.036Z,1.90
2019-02-02T22:41:23.211Z,2.00
2019-02-02T22:43:51.288Z,2.10
2019-02-02T22:46:19.319Z,2.10
2019-02-02T22:48:47.487Z,2.10
2019-02-02T22:51:15.770Z,2.10
2019-02-02T22:53:43.784Z,2.00
2019-02-02T22:56:11.917Z,2.00
2019-02-02T22:58:39.852Z,2.00
2019-02-02T23:01:26.095Z,2.00
2019-02-02T23:04:02.843Z,2.00
2019-02-02T23:07:01.971Z,2.00
2019-02-02T23:09:35.487Z,2.00
2019-02-02T23:12:32.058Z,2.00
2019-02-02T23:15:25.216Z,2.00
2019-02-02T23:17:53.229Z,2.00
2019-02-02T23:20:21.279Z,2.00
2019-02-02T23:22:52.185Z,2.00
2019-02-02T23:25:20.218Z,2.00
2019-02-02T23:27:48.138Z,1.90
2019-02-02T23:30:16.316Z,2.00
2019-02-02T23:32:44.455Z,2.00
2019-02-02T23:35:12.642Z,2.00
2019-02-02T23:37:40.742Z,1.90
2019-02-02T23:40:09.179Z,1.80
2019-02-02T23:42:37.213Z,1.80
2019-02-02T23:45:05.917Z,1.90
2019-02-02T23:47:34.232Z,1.90
2019-02-02T23:50:02.988Z,1.80
2019-02-02T23:52:31.154Z,1.90
2019-02-02T23:54:59.108Z,2.00
2019-02-02T23:57:27.437Z,2.00
2019-02-02T23:59:55.457Z,2.00
